Time;durP1;ratioP1;P1;durP2;ratioP2;P2;SDS_P1;SDS_P2;PMS_P1;PMS_P2;Temp;Humidity;BMP_temperature;BMP_pressure;BME280_temperature;BME280_humidity;BME280_pressure;Samples;Min_cycle;Max_cycle;Signal;HPM_P1;HPM_P2
2023/01/31 06:47:34;;;;;;;442.85;347.15;;;;;;;20.93;45.26;102853.25;5131725;27;20143;-52
2023/01/31 06:50:03;;;;;;;433.27;331.27;;;;;;;22.01;42.42;102841.56;5110952;27;20114;-44
2023/01/31 06:52:31;;;;;;;423.42;320.65;;;;;;;22.82;40.15;102841.22;5110798;28;20429;-57
2023/01/31 06:55:00;;;;;;;393.77;289.70;;;;;;;23.38;38.83;102838.56;5110827;28;20028;-55
2023/01/31 06:57:29;;;;;;;402.73;302.33;;;;;;;23.71;38.28;102838.25;5110742;28;20020;-54
2023/01/31 06:59:57;;;;;;;387.98;289.75;;;;;;;23.98;37.43;102837.72;5110972;28;20038;-56
2023/01/31 07:02:26;;;;;;;397.02;297.27;;;;;;;24.15;37.11;102832.28;5110697;28;20068;-45
2023/01/31 07:04:54;;;;;;;379.98;279.20;;;;;;;24.18;36.93;102828.06;5110721;28;20042;-56
2023/01/31 07:07:23;;;;;;;390.58;290.40;;;;;;;24.24;36.95;102824.78;5110971;28;20059;-55
2023/01/31 07:09:52;;;;;;;365.00;263.45;;;;;;;24.38;35.95;102843.72;5110579;28;20035;-53
2023/01/31 07:12:21;;;;;;;382.13;286.30;;;;;;;24.44;36.50;102838.72;5110444;28;20114;-52
2023/01/31 07:14:49;;;;;;;370.02;271.80;;;;;;;24.49;35.99;102849.44;5110691;28;20024;-51
2023/01/31 07:17:19;;;;;;;383.25;279.05;;;;;;;24.53;35.95;102851.31;5110534;28;20067;-48
2023/01/31 07:19:47;;;;;;;362.40;266.55;;;;;;;24.54;35.68;102854.03;5110423;28;20081;-58
2023/01/31 07:22:16;;;;;;;364.77;265.63;;;;;;;24.56;35.55;102859.31;5110523;28;20063;-55
2023/01/31 07:24:44;;;;;;;372.48;270.92;;;;;;;24.55;36.07;102862.78;5110522;28;20108;-52
2023/01/31 07:27:14;;;;;;;365.40;273.73;;;;;;;24.58;35.93;102861.16;5110148;28;20122;-55
2023/01/31 07:29:42;;;;;;;380.45;271.85;;;;;;;24.57;36.17;102867.22;5110474;28;20104;-45
2023/01/31 07:32:11;;;;;;;373.10;272.27;;;;;;;24.55;35.95;102879.44;5109923;28;20031;-54
2023/01/31 07:34:40;;;;;;;359.15;261.33;;;;;;;24.54;35.85;102879.34;5110195;28;20024;-55
2023/01/31 07:37:08;;;;;;;371.23;270.08;;;;;;;24.58;35.94;102881.28;5110049;28;20449;-54
2023/01/31 07:39:37;;;;;;;357.48;261.42;;;;;;;24.49;35.96;102875.66;5108997;28;20081;-50
2023/01/31 07:42:06;;;;;;;373.85;266.17;;;;;;;24.52;36.23;102884.53;5108550;28;20477;-45
2023/01/31 07:44:34;;;;;;;355.25;258.88;;;;;;;24.56;36.09;102890.81;5110209;28;20039;-55
2023/01/31 07:47:03;;;;;;;358.98;257.23;;;;;;;24.54;35.91;102882.88;5109798;28;20043;-51
2023/01/31 07:49:32;;;;;;;367.67;266.25;;;;;;;24.51;36.16;102892.34;5109565;28;20066;-55
2023/01/31 07:52:02;;;;;;;355.65;258.73;;;;;;;24.49;36.20;102883.53;5109935;28;20047;-54
2023/01/31 07:54:30;;;;;;;346.15;250.75;;;;;;;24.51;36.00;102888.00;5109670;28;20073;-47
2023/01/31 07:56:59;;;;;;;333.27;242.82;;;;;;;24.49;35.98;102900.16;5106646;28;20036;-47
2023/01/31 07:59:28;;;;;;;354.73;249.55;;;;;;;24.49;36.08;102899.28;5096245;28;20075;-49
2023/01/31 08:04:44;;;;;;;326.70;236.98;;;;;;;24.52;35.88;102902.00;5078335;28;20040;-55
2023/01/31 08:07:13;;;;;;;336.05;243.55;;;;;;;24.47;36.10;102901.81;5095702;28;20080;-55
2023/01/31 08:09:42;;;;;;;341.85;243.70;;;;;;;24.48;36.18;102906.22;5096094;28;20072;-52
2023/01/31 08:12:11;;;;;;;324.02;235.63;;;;;;;24.52;35.87;102920.34;5095731;28;20042;-51
2023/01/31 08:14:40;;;;;;;331.23;239.93;;;;;;;24.52;35.91;102921.28;5095988;28;20028;-55
2023/01/31 08:17:08;;;;;;;327.25;243.80;;;;;;;24.53;36.11;102922.16;5094055;28;20366;-55
2023/01/31 08:19:37;;;;;;;336.92;241.25;;;;;;;24.50;36.28;102928.19;5095958;28;20024;-52
2023/01/31 08:22:06;;;;;;;332.40;236.38;;;;;;;24.51;36.30;102934.31;5095596;28;20031;-55
2023/01/31 08:24:34;;;;;;;339.80;245.73;;;;;;;24.51;36.50;102939.56;5095758;28;20026;-48
2023/01/31 08:27:03;;;;;;;344.13;238.20;;;;;;;24.49;36.33;102941.25;5095821;28;20028;-53
2023/01/31 08:29:32;;;;;;;338.80;240.00;;;;;;;24.47;36.30;102943.78;5095676;28;20024;-54
2023/01/31 08:32:01;;;;;;;329.10;238.07;;;;;;;24.49;36.46;102943.88;5095091;28;20024;-52
2023/01/31 08:34:30;;;;;;;334.08;235.32;;;;;;;24.50;36.27;102953.50;5095471;28;20024;-55
2023/01/31 08:36:59;;;;;;;328.85;233.95;;;;;;;24.49;36.19;102946.50;5095786;28;20035;-52
2023/01/31 08:39:28;;;;;;;344.83;244.82;;;;;;;24.50;36.62;102946.53;5095361;28;20452;-45
2023/01/31 08:41:57;;;;;;;339.13;238.35;;;;;;;24.52;36.13;102947.50;5095314;28;20388;-48
2023/01/31 08:44:25;;;;;;;330.63;234.23;;;;;;;24.49;36.41;102950.00;5095261;28;20032;-45
2023/01/31 08:46:54;;;;;;;324.70;235.23;;;;;;;24.52;36.29;102946.59;5094874;28;20052;-56
2023/01/31 08:49:23;;;;;;;337.27;235.30;;;;;;;24.51;36.13;102943.09;5093544;28;20030;-45
2023/01/31 08:51:52;;;;;;;334.83;233.80;;;;;;;24.42;36.27;102942.69;5094815;28;20111;-45
2023/01/31 08:54:19;;;;;;;335.55;238.23;;;;;;;24.48;36.09;102952.56;5092842;28;20095;-49
2023/01/31 08:56:46;;;;;;;319.15;229.32;;;;;;;24.50;36.34;102953.50;5056919;28;20020;-45
2023/01/31 08:59:14;;;;;;;323.88;233.32;;;;;;;24.51;36.27;102953.59;5053542;28;20036;-52
2023/01/31 09:01:44;;;;;;;326.38;235.70;;;;;;;24.54;36.31;102943.22;5056189;28;20024;-45
2023/01/31 09:04:12;;;;;;;338.92;240.48;;;;;;;24.58;36.42;102941.63;5056853;28;20482;-48
2023/01/31 09:06:39;;;;;;;345.27;249.07;;;;;;;24.58;36.41;102936.38;5053492;28;20032;-45
2023/01/31 09:09:06;;;;;;;350.27;250.63;;;;;;;24.58;36.17;102939.00;5052681;28;20113;-45
2023/01/31 09:11:34;;;;;;;340.33;244.15;;;;;;;24.60;35.98;102936.41;5052973;28;20461;-48
2023/01/31 09:14:02;;;;;;;359.70;250.02;;;;;;;24.61;36.49;102939.13;5053620;28;20029;-51
2023/01/31 09:16:30;;;;;;;341.20;243.25;;;;;;;24.61;35.99;102940.84;5051777;28;20029;-47
2023/01/31 09:18:58;;;;;;;354.95;253.70;;;;;;;24.63;36.54;102944.44;5053103;28;20025;-56
2023/01/31 09:21:26;;;;;;;340.27;246.82;;;;;;;24.67;36.25;102942.00;5052568;28;20020;-48
2023/01/31 09:24:01;;;;;;;351.30;247.02;;;;;;;24.64;36.67;102940.97;5058829;28;20020;-56
2023/01/31 09:26:28;;;;;;;359.85;253.73;;;;;;;24.65;36.83;102941.06;5072166;28;20543;-57
2023/01/31 09:28:57;;;;;;;352.75;245.02;;;;;;;24.64;36.65;102947.13;5072749;28;20028;-45
2023/01/31 09:31:26;;;;;;;340.30;242.65;;;;;;;24.69;36.60;102949.94;5054125;28;20035;-45
2023/01/31 09:33:54;;;;;;;340.45;243.52;;;;;;;24.73;36.09;102941.41;5052780;28;20363;-50
2023/01/31 09:36:23;;;;;;;340.98;239.93;;;;;;;24.74;36.09;102945.78;5052697;28;20021;-55
2023/01/31 09:38:56;;;;;;;339.67;240.88;;;;;;;24.73;36.26;102960.66;5052615;28;20484;-54
2023/01/31 09:41:30;;;;;;;332.27;235.10;;;;;;;24.73;36.67;102958.03;5052488;28;20037;-45
2023/01/31 09:44:02;;;;;;;310.83;226.80;;;;;;;24.82;35.98;102959.25;5049199;28;20017;-51
2023/01/31 09:46:35;;;;;;;319.10;222.27;;;;;;;24.75;36.24;102965.06;5049861;28;20384;-46
2023/01/31 09:49:05;;;;;;;300.70;213.52;;;;;;;24.76;36.05;102959.00;5052755;28;20033;-55
2023/01/31 09:51:34;;;;;;;317.35;220.60;;;;;;;24.80;36.15;102964.44;5050155;28;20029;-50
2023/01/31 09:54:03;;;;;;;311.63;215.70;;;;;;;24.83;36.11;102956.69;5051538;28;20029;-50
2023/01/31 09:56:54;;;;;;;308.58;214.85;;;;;;;24.82;35.97;102962.75;5050885;28;20029;-46
2023/01/31 09:59:28;;;;;;;301.75;215.45;;;;;;;24.87;35.94;102962.94;5043577;28;20437;-56
2023/01/31 10:02:27;;;;;;;289.23;209.15;;;;;;;24.87;35.85;102969.09;5050699;28;20032;-45
2023/01/31 10:05:04;;;;;;;292.42;205.60;;;;;;;24.92;35.82;102957.88;5050121;28;20029;-46
2023/01/31 10:07:36;;;;;;;283.33;199.80;;;;;;;24.95;35.43;102965.88;5049765;28;20369;-54
2023/01/31 10:10:42;;;;;;;285.42;199.55;;;;;;;24.89;35.88;102966.53;5051285;28;20036;-57
2023/01/31 10:13:30;;;;;;;;;;;;;;;24.94;35.77;102977.22;5046669;28;20037;-53
2023/01/31 10:16:04;;;;;;;275.40;197.43;;;;;;;25.00;35.54;102972.22;5051028;28;20305;-52
2023/01/31 10:18:34;;;;;;;287.25;203.70;;;;;;;24.91;35.74;102975.38;5052001;28;20029;-47
2023/01/31 10:21:08;;;;;;;271.60;192.77;;;;;;;24.93;35.61;102976.34;5049865;28;20551;-46
2023/01/31 10:23:40;;;;;;;278.48;186.98;;;;;;;24.94;35.66;102980.75;5049911;28;20051;-46
2023/01/31 10:26:23;;;;;;;274.70;192.63;;;;;;;24.92;35.65;102989.38;5052290;28;20119;-54
2023/01/31 10:29:00;;;;;;;270.90;193.75;;;;;;;24.91;35.61;102985.88;5049509;28;20025;-58
2023/01/31 10:32:00;;;;;;;267.10;189.50;;;;;;;24.94;35.60;102991.25;5050537;28;20033;-49
2023/01/31 10:34:29;;;;;;;271.52;191.27;;;;;;;24.95;35.52;102998.31;5046107;28;20029;-45
2023/01/31 10:37:19;;;;;;;263.67;187.43;;;;;;;24.97;35.63;102983.50;5051316;28;20470;-53
2023/01/31 10:39:52;;;;;;;260.65;186.98;;;;;;;24.95;35.68;102990.44;5046064;28;20045;-51
2023/01/31 10:42:22;;;;;;;261.35;184.30;;;;;;;24.96;35.80;102992.22;5050060;28;20490;-54
2023/01/31 10:45:10;;;;;;;249.15;181.57;;;;;;;24.95;35.51;103000.94;5051369;28;20489;-45
2023/01/31 10:47:41;;;;;;;259.33;188.93;;;;;;;25.05;35.74;102999.59;5050576;28;20048;-45
2023/01/31 10:50:18;;;;;;;268.55;186.32;;;;;;;25.03;35.69;103004.75;5049267;28;20021;-56
2023/01/31 10:53:08;;;;;;;251.75;182.05;;;;;;;25.04;35.64;103000.41;5051396;28;20067;-59
2023/01/31 10:55:47;;;;;;;250.73;180.45;;;;;;;25.06;35.29;103009.25;5045494;28;20063;-57
2023/01/31 10:58:17;;;;;;;260.27;182.20;;;;;;;25.05;35.32;103009.16;5049610;28;20044;-53
2023/01/31 11:00:46;;;;;;;244.23;173.88;;;;;;;25.03;35.33;103011.75;5049223;28;20021;-41
2023/01/31 11:03:13;;;;;;;239.20;170.82;;;;;;;25.01;35.73;103006.41;5030955;28;20033;-48
2023/01/31 11:05:56;;;;;;;256.42;177.85;;;;;;;25.07;35.25;103010.13;5050747;28;20031;-56
2023/01/31 11:08:31;;;;;;;261.10;186.38;;;;;;;25.08;35.40;103002.31;5050992;28;20083;-52
2023/01/31 11:11:04;;;;;;;255.70;180.38;;;;;;;25.10;35.57;103012.88;5049208;28;20079;-58
2023/01/31 11:13:31;;;;;;;257.42;179.00;;;;;;;25.10;35.61;103018.13;5050012;28;20130;-56
2023/01/31 11:15:58;;;;;;;238.20;173.93;;;;;;;25.10;35.28;103016.41;5050777;28;20065;-59
2023/01/31 11:18:29;;;;;;;236.35;172.80;;;;;;;25.10;35.45;103007.63;5049910;28;20021;-58
2023/01/31 11:20:57;;;;;;;253.02;172.98;;;;;;;25.17;35.42;103007.03;5048842;28;20133;-47
2023/01/31 11:23:28;;;;;;;230.85;162.80;;;;;;;25.10;35.29;102999.75;5048633;28;20029;-57
2023/01/31 11:25:55;;;;;;;256.15;178.57;;;;;;;25.09;35.26;102996.22;5050126;28;20029;-45
2023/01/31 11:28:33;;;;;;;247.40;173.32;;;;;;;25.10;35.18;102998.00;5049041;28;20035;-54
2023/01/31 11:31:01;;;;;;;248.85;172.40;;;;;;;25.09;35.34;103003.22;5048988;28;20032;-56
2023/01/31 11:33:40;;;;;;;236.43;168.25;;;;;;;25.12;35.30;102996.34;5052443;28;20032;-58
2023/01/31 11:36:09;;;;;;;253.82;177.98;;;;;;;25.12;35.07;102988.47;5054397;28;20032;-48
2023/01/31 11:38:36;;;;;;;236.85;169.35;;;;;;;25.13;35.12;102981.50;5054056;28;20437;-41
2023/01/31 11:41:34;;;;;;;228.13;163.50;;;;;;;25.11;35.10;102980.53;5053802;28;20025;-54
2023/01/31 11:44:15;;;;;;;240.48;171.52;;;;;;;25.06;35.25;102972.50;5053172;28;20031;-57
2023/01/31 11:46:54;;;;;;;246.07;175.90;;;;;;;25.08;35.57;102986.53;5052632;28;20537;-52
2023/01/31 11:49:23;;;;;;;241.15;173.13;;;;;;;25.16;35.13;102986.84;5052282;28;20033;-57
2023/01/31 11:51:51;;;;;;;249.20;173.63;;;;;;;25.15;35.37;102977.22;5052879;28;20025;-56
2023/01/31 11:54:23;;;;;;;249.13;178.32;;;;;;;25.14;35.11;102980.66;5052126;28;20033;-49
2023/01/31 11:56:51;;;;;;;217.55;151.95;;;;;;;25.17;34.95;102967.63;5053847;28;20401;-48
2023/01/31 11:59:22;;;;;;;206.63;147.85;;;;;;;25.18;34.71;102966.81;5056998;28;20029;-47
2023/01/31 12:01:52;;;;;;;211.15;146.27;;;;;;;25.20;34.80;102965.13;5059221;28;20527;-59
2023/01/31 12:04:26;;;;;;;212.02;150.98;;;;;;;25.18;34.89;102969.44;5070841;28;20094;-54
2023/01/31 12:07:21;;;;;;;215.55;149.43;;;;;;;25.15;34.83;102966.72;5055633;28;20037;-59
2023/01/31 12:09:48;;;;;;;;;;;;;;;25.18;34.65;102958.91;5047968;28;20037;-59
2023/01/31 12:12:30;;;;;;;225.40;152.57;;;;;;;25.12;34.61;102950.81;5052366;28;20003;-53
2023/01/31 12:15:04;;;;;;;226.23;156.75;;;;;;;25.17;34.91;102962.38;5053283;28;20027;-57
2023/01/31 12:17:42;;;;;;;219.57;151.45;;;;;;;25.21;34.74;102961.69;5053393;28;20029;-41
2023/01/31 12:20:22;;;;;;;223.40;157.70;;;;;;;25.17;34.90;102955.41;5052701;28;20056;-59
2023/01/31 12:23:28;;;;;;;224.20;153.55;;;;;;;25.14;34.95;102957.03;5051211;28;20037;-56
2023/01/31 12:26:02;;;;;;;213.90;146.85;;;;;;;25.18;35.18;102957.22;5047841;28;20119;-57
2023/01/31 12:28:58;;;;;;;202.35;137.90;;;;;;;25.15;35.21;102962.34;5053732;28;20032;-41
2023/01/31 12:31:30;;;;;;;207.25;140.25;;;;;;;25.20;35.00;102951.13;5039642;28;20483;-59
2023/01/31 12:34:10;;;;;;;194.27;133.55;;;;;;;25.24;34.59;102953.91;5052011;28;20029;-58
2023/01/31 12:36:56;;;;;;;177.32;126.88;;;;;;;25.24;34.48;102946.03;5052967;28;20056;-42
2023/01/31 12:39:54;;;;;;;175.63;124.32;;;;;;;25.24;34.54;102942.50;5050751;28;20087;-58
2023/01/31 12:42:46;;;;;;;167.27;118.47;;;;;;;25.20;34.57;102931.00;5048127;28;20033;-50
2023/01/31 12:45:22;;;;;;;166.63;112.45;;;;;;;25.26;34.42;102933.88;5044725;28;20569;-56
2023/01/31 12:47:54;;;;;;;155.88;108.45;;;;;;;25.30;34.30;102935.78;5053136;28;20041;-53
2023/01/31 12:50:26;;;;;;;148.95;105.55;;;;;;;25.23;34.24;102927.59;5053138;28;20436;-49
2023/01/31 12:53:32;;;;;;;158.30;104.80;;;;;;;25.21;34.36;102927.53;5051837;28;20074;-60
2023/01/31 12:56:17;;;;;;;145.82;100.03;;;;;;;25.25;34.04;102926.81;5048099;28;20044;-49
2023/01/31 12:58:54;;;;;;;135.25;93.60;;;;;;;25.28;34.03;102928.66;5052813;28;20033;-44
2023/01/31 13:01:33;;;;;;;121.40;86.65;;;;;;;25.28;34.03;102918.16;5051628;28;20029;-41
2023/01/31 13:04:20;;;;;;;124.15;83.43;;;;;;;25.32;33.75;102920.06;5051965;28;20029;-41
2023/01/31 13:06:53;;;;;;;121.57;83.63;;;;;;;25.30;33.92;102916.47;5048018;28;20041;-41
2023/01/31 13:09:23;;;;;;;112.78;78.75;;;;;;;25.31;34.02;102911.31;5051520;28;20041;-41
2023/01/31 13:11:59;;;;;;;114.47;80.57;;;;;;;25.29;34.12;102906.81;5051652;28;20452;-59
2023/01/31 13:14:31;;;;;;;107.22;75.25;;;;;;;25.31;33.78;102890.28;5050478;28;20096;-44
2023/01/31 13:17:02;;;;;;;109.32;76.15;;;;;;;25.29;33.97;102898.94;5034442;28;20367;-45
2023/01/31 13:19:49;;;;;;;100.13;71.88;;;;;;;25.27;34.02;102904.13;5051098;28;20226;-48
2023/01/31 13:22:26;;;;;;;93.30;66.40;;;;;;;25.32;34.09;102913.06;5054268;28;20449;-60
2023/01/31 13:25:06;;;;;;;94.38;65.80;;;;;;;25.33;33.72;102904.34;5051841;28;20025;-41
2023/01/31 13:27:37;;;;;;;96.40;67.05;;;;;;;25.28;33.99;102905.94;5049991;28;20037;-41
2023/01/31 13:30:18;;;;;;;95.25;65.47;;;;;;;25.26;33.99;102898.81;5050846;28;20112;-42
2023/01/31 13:32:48;;;;;;;98.30;66.32;;;;;;;25.31;34.00;102900.78;5053254;28;20025;-46
2023/01/31 13:35:28;;;;;;;89.38;63.30;;;;;;;25.30;33.94;102887.59;5050604;28;20507;-41
2023/01/31 13:37:59;;;;;;;86.88;58.67;;;;;;;25.32;33.96;102881.53;5052092;28;20036;-41
2023/01/31 13:40:42;;;;;;;87.70;59.65;;;;;;;25.26;33.97;102880.41;5051772;28;20386;-59
2023/01/31 13:43:14;;;;;;;92.28;63.58;;;;;;;25.28;33.97;102879.66;5051854;28;20029;-58
2023/01/31 13:45:47;;;;;;;80.28;57.13;;;;;;;25.30;33.97;102878.00;5049905;28;20028;-43
2023/01/31 13:48:33;;;;;;;86.57;60.20;;;;;;;25.29;34.09;102870.94;5051829;28;20025;-59
2023/01/31 13:51:05;;;;;;;80.88;54.88;;;;;;;25.32;33.86;102873.66;5051240;28;20435;-43
2023/01/31 13:53:37;;;;;;;80.45;57.05;;;;;;;25.28;34.09;102869.16;5052108;28;20064;-53
2023/01/31 13:56:05;;;;;;;81.53;57.75;;;;;;;25.27;34.10;102869.06;5051063;28;20079;-53
2023/01/31 13:58:34;;;;;;;79.50;55.15;;;;;;;25.28;33.83;102865.63;5050485;28;20025;-42
2023/01/31 14:01:12;;;;;;;75.85;53.67;;;;;;;25.29;33.87;102860.44;5051650;28;20122;-55
2023/01/31 14:04:20;;;;;;;70.65;51.83;;;;;;;25.34;33.69;102860.59;5052023;28;20033;-56
2023/01/31 14:07:17;;;;;;;68.03;48.00;;;;;;;25.36;33.78;102853.69;5051020;28;20033;-47
2023/01/31 14:10:05;;;;;;;74.43;51.95;;;;;;;25.34;33.95;102855.34;5051378;28;20025;-41
2023/01/31 14:12:35;;;;;;;69.57;48.30;;;;;;;25.37;33.92;102857.19;5050055;28;20025;-48
2023/01/31 14:15:20;;;;;;;71.25;49.08;;;;;;;25.33;33.61;102841.31;5051179;28;20029;-55
2023/01/31 14:17:56;;;;;;;68.10;47.53;;;;;;;25.28;33.72;102840.25;5050166;28;20390;-46
2023/01/31 14:20:28;;;;;;;66.40;46.47;;;;;;;25.33;33.44;102830.78;5066045;28;20024;-42
2023/01/31 14:23:34;;;;;;;68.68;48.17;;;;;;;25.34;33.72;102822.06;5061232;28;20020;-45
2023/01/31 14:26:00;;;;;;;;;;;;;;;25.36;33.78;102822.16;5044537;28;20070;-55
2023/01/31 14:28:28;;;;;;;74.28;47.58;;;;;;;25.41;33.36;102825.81;5051133;28;20293;-54
2023/01/31 14:30:56;;;;;;;65.72;46.67;;;;;;;25.37;33.58;102821.31;5051611;28;20033;-42
2023/01/31 14:33:25;;;;;;;66.65;45.38;;;;;;;25.38;33.49;102819.56;5051013;28;20055;-59
2023/01/31 14:36:01;;;;;;;64.93;45.90;;;;;;;25.35;33.56;102817.72;5050494;28;20170;-56
2023/01/31 14:39:07;;;;;;;62.10;44.35;;;;;;;25.33;33.65;102816.78;5051719;28;20490;-59
2023/01/31 14:42:02;;;;;;;66.90;45.05;;;;;;;25.31;33.66;102816.75;5039593;28;20048;-48
2023/01/31 14:44:29;;;;;;;;;;;;;;;25.32;33.56;102821.13;5043506;28;20052;-47
2023/01/31 14:47:17;;;;;;;58.20;41.65;;;;;;;25.34;33.66;102814.19;5051430;28;19917;-59
2023/01/31 14:49:52;;;;;;;67.72;46.22;;;;;;;25.34;33.76;102829.06;5050502;28;20028;-55
2023/01/31 14:52:27;;;;;;;63.85;43.65;;;;;;;25.33;33.54;102828.16;5050820;28;20036;-58
2023/01/31 14:55:07;;;;;;;58.92;42.35;;;;;;;25.31;33.61;102827.25;5051575;28;20027;-50
2023/01/31 14:57:42;;;;;;;59.78;41.00;;;;;;;25.33;33.39;102825.53;5051520;28;20474;-48
2023/01/31 15:00:41;;;;;;;62.28;43.10;;;;;;;25.32;33.47;102828.13;5051581;28;20057;-45
2023/01/31 15:03:35;;;;;;;64.80;44.22;;;;;;;25.28;33.77;102827.13;5050874;28;20045;-48
2023/01/31 15:06:42;;;;;;;57.65;39.72;;;;;;;25.28;33.60;102827.13;5046991;28;20037;-42
2023/01/31 15:09:23;;;;;;;59.95;41.33;;;;;;;25.28;33.41;102820.97;5054874;28;20048;-60
2023/01/31 15:11:54;;;;;;;61.88;42.35;;;;;;;25.26;33.32;102820.00;5054907;28;20021;-60
2023/01/31 15:14:46;;;;;;;64.63;43.30;;;;;;;25.24;33.70;102824.31;5055581;28;20116;-54
2023/01/31 15:17:20;;;;;;;57.05;41.88;;;;;;;25.22;33.86;102829.50;5053325;28;20052;-42
2023/01/31 15:19:52;;;;;;;62.83;42.67;;;;;;;25.26;33.68;102833.13;5055232;28;20043;-50
2023/01/31 15:22:22;;;;;;;63.70;42.22;;;;;;;25.21;33.78;102822.47;5053547;28;20178;-60
2023/01/31 15:24:56;;;;;;;58.45;41.95;;;;;;;25.20;33.65;102825.06;5055224;28;20025;-60
2023/01/31 15:27:29;;;;;;;63.00;43.33;;;;;;;25.24;33.72;102829.56;5055020;28;20032;-49
2023/01/31 15:30:10;;;;;;;66.95;45.15;;;;;;;25.19;33.51;102832.00;5055453;28;20025;-41
2023/01/31 15:32:59;;;;;;;64.60;42.78;;;;;;;25.22;33.48;102828.63;5054619;28;20025;-58
2023/01/31 15:35:43;;;;;;;58.28;42.60;;;;;;;25.20;33.73;102831.19;5046633;28;20037;-42
2023/01/31 15:38:34;;;;;;;62.80;44.40;;;;;;;25.20;33.91;102830.31;5055227;28;20111;-41
2023/01/31 15:41:22;;;;;;;58.97;42.83;;;;;;;25.22;33.54;102836.50;5053780;28;20057;-54
2023/01/31 15:43:53;;;;;;;55.17;39.88;;;;;;;25.16;33.64;102817.06;5032385;28;20042;-41
2023/01/31 15:46:23;;;;;;;61.22;43.20;;;;;;;25.22;33.74;102832.13;5035647;28;20525;-50
2023/01/31 15:48:51;;;;;;;60.63;41.55;;;;;;;25.18;33.85;102827.59;5035928;28;20095;-60
2023/01/31 15:51:19;;;;;;;62.92;42.45;;;;;;;25.22;33.62;102829.50;5051307;28;20498;-43
2023/01/31 15:53:47;;;;;;;66.18;45.65;;;;;;;25.20;33.64;102828.56;5055771;28;20028;-60
2023/01/31 15:56:26;;;;;;;64.05;43.72;;;;;;;25.18;33.56;102830.22;5055450;28;20029;-42
2023/01/31 15:58:55;;;;;;;63.90;42.40;;;;;;;25.22;33.54;102832.13;5055367;28;20553;-42
2023/01/31 16:01:23;;;;;;;58.88;41.63;;;;;;;25.21;33.53;102829.47;5037610;28;20021;-57
2023/01/31 16:03:55;;;;;;;63.92;42.20;;;;;;;25.20;33.48;102839.06;5055535;28;20025;-42
2023/01/31 16:06:26;;;;;;;63.38;43.33;;;;;;;25.20;33.61;102828.56;5037543;28;20486;-55
2023/01/31 16:08:56;;;;;;;58.53;42.05;;;;;;;25.20;33.80;102840.81;5055592;28;20037;-60
2023/01/31 16:11:25;;;;;;;58.53;41.15;;;;;;;25.21;33.64;102839.97;5055060;28;20070;-52
2023/01/31 16:13:55;;;;;;;54.70;39.05;;;;;;;25.16;33.48;102832.81;5053934;28;20466;-61
2023/01/31 16:16:23;;;;;;;58.88;41.63;;;;;;;25.18;33.29;102832.84;5055005;28;20029;-42
2023/01/31 16:18:54;;;;;;;58.97;40.50;;;;;;;25.17;33.46;102831.06;5054941;28;20397;-60
2023/01/31 16:21:41;;;;;;;63.35;43.55;;;;;;;25.14;33.47;102837.09;5054823;28;20418;-54
2023/01/31 16:24:20;;;;;;;58.90;39.13;;;;;;;25.21;33.44;102832.97;5055114;28;20037;-55
2023/01/31 16:27:07;;;;;;;62.50;42.60;;;;;;;25.16;33.55;102832.81;5053555;28;20107;-58
2023/01/31 16:29:41;;;;;;;60.25;40.92;;;;;;;25.18;33.59;102839.03;5045415;28;20037;-51
2023/01/31 16:32:28;;;;;;;60.38;42.83;;;;;;;25.17;33.43;102844.19;5053964;28;20071;-46
2023/01/31 16:35:08;;;;;;;62.40;41.67;;;;;;;25.24;33.26;102846.22;5053460;28;20390;-60
2023/01/31 16:37:38;;;;;;;65.88;44.42;;;;;;;25.29;33.51;102857.81;5052519;28;20028;-59
2023/01/31 16:40:09;;;;;;;64.47;44.45;;;;;;;25.29;33.39;102855.19;5052631;28;20052;-52
2023/01/31 16:42:38;;;;;;;60.67;42.75;;;;;;;25.39;33.47;102855.50;5053748;28;20035;-42
2023/01/31 16:45:30;;;;;;;64.45;44.10;;;;;;;25.40;33.31;102852.06;5053703;28;20032;-46
2023/01/31 16:48:20;;;;;;;59.50;43.92;;;;;;;25.37;33.53;102851.94;5052395;28;20045;-60
2023/01/31 16:50:49;;;;;;;65.53;43.78;;;;;;;25.41;33.28;102851.22;5052420;28;20035;-43
2023/01/31 16:53:38;;;;;;;63.33;45.15;;;;;;;25.39;33.13;102845.91;5050290;28;20386;-46
2023/01/31 16:56:17;;;;;;;65.53;43.90;;;;;;;25.33;33.46;102838.66;5053428;28;20025;-51
2023/01/31 16:58:51;;;;;;;64.07;44.88;;;;;;;25.46;32.94;102836.56;5052962;28;20082;-53
2023/01/31 17:01:22;;;;;;;65.32;43.80;;;;;;;25.48;33.07;102842.75;5050627;28;20025;-55
2023/01/31 17:04:09;;;;;;;68.20;44.63;;;;;;;25.43;33.27;102839.94;5050529;28;20033;-52
2023/01/31 17:06:40;;;;;;;63.50;43.38;;;;;;;25.47;33.39;102840.97;5046129;28;20436;-57
2023/01/31 17:09:09;;;;;;;61.55;43.35;;;;;;;25.51;33.11;102845.47;5052838;28;20025;-59
2023/01/31 17:11:37;;;;;;;69.47;45.75;;;;;;;25.48;33.30;102842.75;5052141;28;20127;-59
2023/01/31 17:14:04;;;;;;;66.95;45.70;;;;;;;25.47;33.09;102833.09;5053861;28;20485;-56
2023/01/31 17:16:32;;;;;;;67.32;47.38;;;;;;;25.47;33.26;102835.72;5051906;28;20018;-56
2023/01/31 17:19:00;;;;;;;67.03;47.65;;;;;;;25.43;33.27;102820.66;5052268;28;20037;-44
2023/01/31 17:21:28;;;;;;;65.13;44.85;;;;;;;25.47;33.38;102833.97;5052773;28;20029;-60
2023/01/31 17:23:55;;;;;;;64.43;45.70;;;;;;;25.51;33.01;102820.94;5052117;28;20036;-47
2023/01/31 17:26:23;;;;;;;62.78;45.13;;;;;;;25.49;32.99;102826.13;5052741;28;20138;-52
2023/01/31 17:28:50;;;;;;;67.15;46.72;;;;;;;25.54;33.00;102823.69;5052702;28;20140;-60
2023/01/31 17:31:22;;;;;;;70.00;48.10;;;;;;;25.60;32.75;102821.25;5052395;28;20020;-49
2023/01/31 17:33:50;;;;;;;66.25;47.78;;;;;;;25.60;32.71;102816.00;5049182;28;20047;-52
2023/01/31 17:36:17;;;;;;;69.38;48.17;;;;;;;25.60;32.81;102809.03;5052813;28;20497;-44
2023/01/31 17:38:46;;;;;;;62.75;45.45;;;;;;;25.58;32.76;102810.72;5052623;28;20066;-48
2023/01/31 17:41:16;;;;;;;68.15;46.63;;;;;;;25.56;33.21;102819.38;5052808;28;21430;-55
2023/01/31 17:43:44;;;;;;;68.80;48.67;;;;;;;25.57;33.08;102826.41;5050802;28;20047;-46
2023/01/31 17:46:14;;;;;;;66.82;45.90;;;;;;;25.54;33.19;102826.31;5050725;28;20110;-59
2023/01/31 17:48:41;;;;;;;63.63;45.58;;;;;;;25.57;32.90;102834.28;5050940;28;20029;-51
2023/01/31 17:51:08;;;;;;;66.65;44.25;;;;;;;25.57;32.85;102844.78;5050465;28;20025;-44
2023/01/31 17:53:35;;;;;;;58.20;43.35;;;;;;;25.58;33.01;102843.97;5052794;28;20033;-57
2023/01/31 17:56:03;;;;;;;64.05;46.08;;;;;;;25.58;32.96;102847.50;5056845;28;20090;-47
2023/01/31 17:58:31;;;;;;;63.55;42.58;;;;;;;25.58;33.01;102847.50;5052437;28;20035;-45
2023/01/31 18:00:58;;;;;;;67.85;46.03;;;;;;;25.58;32.71;102857.09;5052589;28;20474;-57
2023/01/31 18:03:26;;;;;;;64.80;44.50;;;;;;;25.56;32.89;102848.28;5052851;28;20057;-45
2023/01/31 18:05:54;;;;;;;64.82;46.65;;;;;;;25.58;32.75;102851.84;5053033;28;20027;-60
2023/01/31 18:08:23;;;;;;;66.82;45.85;;;;;;;25.59;32.83;102851.00;5052192;28;20028;-60
2023/01/31 18:10:51;;;;;;;66.82;46.90;;;;;;;25.60;32.98;102848.44;5051214;28;20113;-54
2023/01/31 18:13:19;;;;;;;65.22;45.03;;;;;;;25.61;32.69;102842.34;5052316;28;20506;-57
2023/01/31 18:15:46;;;;;;;66.55;45.80;;;;;;;25.59;32.93;102849.28;5052772;28;20032;-50
2023/01/31 18:18:14;;;;;;;68.75;46.50;;;;;;;25.60;32.98;102840.56;5051923;28;20033;-42
2023/01/31 18:20:47;;;;;;;62.10;44.67;;;;;;;25.58;32.80;102846.59;5052000;28;20025;-55
2023/01/31 18:23:15;;;;;;;68.30;47.35;;;;;;;25.53;32.96;102842.91;5052539;28;20466;-46